createdAt,value
2022-09-05T00:00:17.947Z,17.30
2022-09-05T00:03:22.842Z,17.28
2022-09-05T00:06:03.168Z,17.28
2022-09-05T00:09:09.082Z,17.28
2022-09-05T00:11:58.385Z,17.27
2022-09-05T00:15:16.997Z,17.25
2022-09-05T00:22:14.434Z,17.22
2022-09-05T00:24:33.149Z,17.21
2022-09-05T00:24:54.698Z,17.16
2022-09-05T00:27:47.279Z,17.13
2022-09-05T00:31:51.769Z,17.12
2022-09-05T00:33:16.986Z,17.16
2022-09-05T00:36:11.178Z,17.18
2022-09-05T00:38:42.950Z,17.20
2022-09-05T00:41:14.373Z,17.24
2022-09-05T00:43:45.290Z,17.23
2022-09-05T00:46:18.162Z,17.25
2022-09-05T00:49:11.563Z,17.31
2022-09-05T00:52:20.718Z,17.33
2022-09-05T00:55:07.266Z,17.30
2022-09-05T00:57:59.284Z,17.31
2022-09-05T01:00:46.877Z,17.30
2022-09-05T01:03:29.562Z,17.30
2022-09-05T01:06:24.798Z,17.23
2022-09-05T01:08:55.892Z,17.20
2022-09-05T01:11:43.901Z,17.17
2022-09-05T01:14:39.059Z,17.13
2022-09-05T01:17:16.363Z,17.08
2022-09-05T01:20:04.686Z,17.06
2022-09-05T01:23:27.520Z,16.99
2022-09-05T01:26:24.428Z,16.93
2022-09-05T01:29:16.939Z,16.84
2022-09-05T01:32:20.917Z,16.81
2022-09-05T01:34:51.429Z,16.83
2022-09-05T01:37:44.938Z,16.85
2022-09-05T01:40:28.688Z,16.88
2022-09-05T01:43:20.566Z,16.86
2022-09-05T01:45:53.584Z,16.82
2022-09-05T01:48:37.922Z,16.76
2022-09-05T01:51:42.136Z,16.70
2022-09-05T01:54:38.417Z,16.70
2022-09-05T01:57:20.886Z,16.73
2022-09-05T02:00:09.916Z,16.78
2022-09-05T02:02:57.528Z,16.81
2022-09-05T02:05:48.503Z,16.76
2022-09-05T02:08:17.118Z,16.71
2022-09-05T02:11:05.647Z,16.75
2022-09-05T02:14:05.889Z,16.73
2022-09-05T02:16:39.349Z,16.75
2022-09-05T02:19:29.357Z,16.74
2022-09-05T02:22:11.187Z,16.74
2022-09-05T02:24:43.517Z,16.75
2022-09-05T02:27:46.120Z,16.71
2022-09-05T02:30:13.612Z,16.72
2022-09-05T02:33:06.722Z,16.74
2022-09-05T02:35:46.402Z,16.76
2022-09-05T02:42:43.496Z,16.82
2022-09-05T02:45:18.371Z,16.86
2022-09-05T02:45:19.430Z,16.90
2022-09-05T02:47:27.899Z,16.84
2022-09-05T02:55:58.764Z,16.84
2022-09-05T02:57:35.756Z,16.81
2022-09-05T02:57:38.336Z,16.80
2022-09-05T02:59:35.939Z,16.77
2022-09-05T03:02:28.644Z,16.83
2022-09-05T03:05:06.829Z,16.85
2022-09-05T03:07:52.800Z,16.85
2022-09-05T03:10:54.623Z,16.81
2022-09-05T03:13:56.306Z,16.78
2022-09-05T03:16:48.346Z,16.73
2022-09-05T03:19:50.861Z,16.62
2022-09-05T03:23:10.087Z,16.61
2022-09-05T03:26:09.603Z,16.53
2022-09-05T03:28:58.695Z,16.50
2022-09-05T03:31:50.316Z,16.51
2022-09-05T03:34:46.595Z,16.50
2022-09-05T03:37:28.447Z,16.44
2022-09-05T03:40:15.879Z,16.45
2022-09-05T03:43:21.844Z,16.43
2022-09-05T03:46:29.151Z,16.38
2022-09-05T03:49:25.868Z,16.33
2022-09-05T03:57:18.470Z,16.26
2022-09-05T03:57:20.205Z,16.29
2022-09-05T03:58:57.128Z,16.23
2022-09-05T04:04:20.303Z,16.17
2022-09-05T04:08:20.702Z,16.18
2022-09-05T04:08:24.961Z,16.16
2022-09-05T04:11:05.527Z,16.11
2022-09-05T04:13:39.587Z,16.15
2022-09-05T04:16:45.319Z,16.09
2022-09-05T04:19:25.554Z,16.10
2022-09-05T04:22:03.916Z,16.04
2022-09-05T04:25:02.953Z,15.97
2022-09-05T04:27:46.726Z,16.00
2022-09-05T04:30:38.829Z,16.01
2022-09-05T04:33:36.361Z,16.05
2022-09-05T04:36:18.769Z,16.10
2022-09-05T04:38:47.051Z,16.16
2022-09-05T04:41:19.218Z,16.19
2022-09-05T04:44:29.695Z,16.21
2022-09-05T04:47:03.446Z,16.21
2022-09-05T04:49:38.793Z,16.20
2022-09-05T04:52:20.868Z,16.21
2022-09-05T04:55:11.049Z,16.21
2022-09-05T04:58:11.969Z,16.22
2022-09-05T05:05:58.759Z,16.24
2022-09-05T05:06:09.767Z,16.27
2022-09-05T05:06:45.547Z,16.26
2022-09-05T05:09:31.780Z,16.33
2022-09-05T05:18:07.466Z,16.42
2022-09-05T05:18:14.370Z,16.39
2022-09-05T05:20:42.018Z,16.45
2022-09-05T05:23:21.446Z,16.46
2022-09-05T05:25:56.010Z,16.48
2022-09-05T05:28:29.227Z,16.51
2022-09-05T05:31:01.640Z,16.54
2022-09-05T05:33:34.928Z,16.56
2022-09-05T05:36:07.975Z,16.62
2022-09-05T05:38:35.432Z,16.67
2022-09-05T05:41:20.084Z,16.70
2022-09-05T05:43:50.340Z,16.68
2022-09-05T05:46:30.189Z,16.71
2022-09-05T05:49:14.898Z,16.78
2022-09-05T05:52:05.383Z,16.86
2022-09-05T05:54:45.650Z,16.90
2022-09-05T05:57:45.906Z,17.03
2022-09-05T06:00:36.369Z,17.13
2022-09-05T06:03:37.748Z,17.28
2022-09-05T06:06:28.975Z,17.41
2022-09-05T06:14:27.513Z,17.54
2022-09-05T06:15:01.460Z,17.71
2022-09-05T06:16:07.658Z,17.93
2022-09-05T06:18:45.709Z,18.05
2022-09-05T06:22:10.170Z,18.16
2022-09-05T06:25:11.069Z,18.29
2022-09-05T06:28:17.696Z,18.43
2022-09-05T06:31:30.296Z,18.68
2022-09-05T06:34:02.068Z,18.86
2022-09-05T06:36:57.547Z,19.02
2022-09-05T06:39:53.452Z,19.22
2022-09-05T06:42:28.564Z,19.34
2022-09-05T06:45:42.493Z,19.45
2022-09-05T06:48:44.688Z,19.53
2022-09-05T06:51:18.225Z,19.62
2022-09-05T06:54:04.314Z,19.69
2022-09-05T06:56:41.046Z,19.90
2022-09-05T06:59:34.229Z,20.02
2022-09-05T07:02:59.342Z,20.15
2022-09-05T07:05:44.931Z,20.17
2022-09-05T07:08:35.644Z,20.27
2022-09-05T07:11:11.911Z,20.38
2022-09-05T07:13:50.930Z,20.48
2022-09-05T07:16:26.550Z,20.57
2022-09-05T07:19:25.617Z,20.79
2022-09-05T07:22:29.572Z,20.83
2022-09-05T07:24:58.288Z,20.93
2022-09-05T07:28:29.999Z,21.26
2022-09-05T07:31:07.425Z,21.53
2022-09-05T07:33:39.654Z,21.78
2022-09-05T07:36:12.388Z,22.03
2022-09-05T07:38:55.070Z,22.27
2022-09-05T07:41:34.175Z,22.19
2022-09-05T07:44:28.660Z,22.38
2022-09-05T07:47:07.090Z,22.63
2022-09-05T07:49:42.233Z,22.74
2022-09-05T07:56:52.572Z,23.11
2022-09-05T07:56:54.147Z,22.85
2022-09-05T07:58:28.078Z,23.16
2022-09-05T08:00:58.776Z,23.19
2022-09-05T08:03:29.224Z,23.54
2022-09-05T08:06:00.571Z,23.73
2022-09-05T08:08:34.953Z,23.97
2022-09-05T08:11:23.381Z,23.94
2022-09-05T08:14:43.560Z,24.08
2022-09-05T08:16:54.457Z,24.39
2022-09-05T08:20:02.496Z,24.51
2022-09-05T08:22:54.338Z,24.79
2022-09-05T08:25:38.928Z,24.94
2022-09-05T08:28:39.635Z,24.96
2022-09-05T08:31:23.962Z,25.26
2022-09-05T08:33:57.194Z,25.43
2022-09-05T08:36:43.027Z,25.59
2022-09-05T08:39:13.333Z,25.78
2022-09-05T08:41:56.135Z,26.10
2022-09-05T08:46:47.656Z,26.27
2022-09-05T08:47:45.614Z,26.57
2022-09-05T08:50:26.889Z,26.45
2022-09-05T08:53:45.706Z,26.31
2022-09-05T08:56:20.434Z,26.24
2022-09-05T08:58:54.080Z,26.85
2022-09-05T09:02:45.584Z,27.33
2022-09-05T09:05:03.149Z,27.75
2022-09-05T09:07:50.624Z,28.16
2022-09-05T09:10:40.822Z,27.97
2022-09-05T09:13:21.676Z,28.21
2022-09-05T09:16:06.512Z,28.77
2022-09-05T09:18:49.373Z,29.25
2022-09-05T09:21:39.789Z,29.68
2022-09-05T09:24:22.404Z,29.34
2022-09-05T09:26:59.879Z,29.89
2022-09-05T09:29:34.351Z,30.00
2022-09-05T09:32:19.285Z,30.44
2022-09-05T09:34:58.800Z,30.63
2022-09-05T09:37:50.877Z,30.51
2022-09-05T09:41:00.758Z,30.76
2022-09-05T09:43:53.132Z,31.12
2022-09-05T09:46:43.474Z,30.63
2022-09-05T09:49:32.477Z,30.84
2022-09-05T09:52:20.653Z,31.13
2022-09-05T09:55:47.153Z,31.25
2022-09-05T09:58:33.402Z,31.44
2022-09-05T10:01:00.869Z,31.54
2022-09-05T10:10:33.031Z,31.69
2022-09-05T10:10:49.221Z,31.25
2022-09-05T10:11:24.609Z,31.16
2022-09-05T10:13:43.081Z,30.91
2022-09-05T10:16:22.854Z,31.34
2022-09-05T10:19:12.741Z,31.31
2022-09-05T10:25:19.186Z,31.28
2022-09-05T10:28:02.289Z,31.67
2022-09-05T10:31:09.590Z,31.18
2022-09-05T10:35:18.209Z,31.39
2022-09-05T10:36:32.064Z,31.11
2022-09-05T10:39:16.302Z,30.57
2022-09-05T10:41:49.902Z,30.23
2022-09-05T10:44:33.935Z,29.94
2022-09-05T10:47:13.583Z,30.28
2022-09-05T10:49:49.200Z,30.42
2022-09-05T10:52:22.805Z,30.61
2022-09-05T10:55:32.149Z,31.03
2022-09-05T10:58:07.452Z,31.51
2022-09-05T11:02:23.801Z,31.46
2022-09-05T11:03:50.307Z,31.99
2022-09-05T11:06:24.672Z,31.95
2022-09-05T11:09:16.501Z,32.37
2022-09-05T11:11:48.201Z,32.40
2022-09-05T11:14:35.302Z,32.05
2022-09-05T11:17:16.606Z,32.96
2022-09-05T11:19:51.369Z,32.51
2022-09-05T11:22:23.863Z,32.94
2022-09-05T11:24:51.844Z,33.18
2022-09-05T11:27:33.760Z,33.12
2022-09-05T11:30:27.311Z,33.09
2022-09-05T11:39:21.915Z,33.21
2022-09-05T11:40:02.932Z,33.42
2022-09-05T11:40:43.599Z,34.23
2022-09-05T11:43:48.067Z,32.81
2022-09-05T11:46:34.215Z,32.69
2022-09-05T11:49:13.649Z,32.49
2022-09-05T11:52:35.123Z,32.27
2022-09-05T11:55:21.791Z,32.01
2022-09-05T11:58:43.777Z,33.14
2022-09-05T12:01:41.167Z,33.28
2022-09-05T12:04:38.937Z,32.30
2022-09-05T12:07:31.577Z,32.33
2022-09-05T12:10:47.951Z,32.35
2022-09-05T12:13:53.137Z,32.24
2022-09-05T12:16:42.265Z,32.52
2022-09-05T12:19:34.498Z,33.69
2022-09-05T12:22:18.626Z,33.00
2022-09-05T12:25:27.256Z,33.01
2022-09-05T12:29:09.717Z,32.65
2022-09-05T12:32:36.477Z,32.88
2022-09-05T12:36:10.577Z,33.35
2022-09-05T12:40:45.151Z,33.92
2022-09-05T12:40:58.370Z,33.27
2022-09-05T12:44:22.921Z,34.28
2022-09-05T12:45:44.068Z,34.16
2022-09-05T12:48:41.317Z,34.25
2022-09-05T12:51:45.086Z,34.14
2022-09-05T12:54:31.192Z,34.48
2022-09-05T13:02:55.129Z,33.85
2022-09-05T13:03:13.207Z,34.07
2022-09-05T13:03:27.837Z,32.76
2022-09-05T13:06:02.121Z,33.01
2022-09-05T13:08:44.122Z,32.84
2022-09-05T13:14:09.028Z,33.17
2022-09-05T13:14:52.311Z,32.55
2022-09-05T13:17:00.015Z,33.18
2022-09-05T13:19:51.203Z,33.42
2022-09-05T13:22:23.764Z,33.85
2022-09-05T13:25:11.236Z,33.34
2022-09-05T13:27:46.617Z,33.38
2022-09-05T13:32:49.970Z,33.06
2022-09-05T13:38:07.303Z,32.67
2022-09-05T13:38:10.558Z,32.68
2022-09-05T13:39:22.922Z,32.31
2022-09-05T13:41:59.556Z,32.21
2022-09-05T13:44:30.039Z,32.21
2022-09-05T13:47:28.419Z,31.83
2022-09-05T13:50:09.505Z,31.53
2022-09-05T13:52:44.134Z,31.78
2022-09-05T13:56:00.532Z,31.72
2022-09-05T13:58:56.850Z,31.78
2022-09-05T14:02:25.774Z,31.88
2022-09-05T14:05:20.818Z,31.73
2022-09-05T14:08:17.876Z,31.00
2022-09-05T14:10:51.339Z,31.21
2022-09-05T14:14:11.239Z,30.59
2022-09-05T14:16:54.304Z,30.58
2022-09-05T14:19:43.267Z,30.91
2022-09-05T14:22:22.190Z,30.95
2022-09-05T14:24:58.327Z,31.02
2022-09-05T14:27:32.094Z,31.13
2022-09-05T14:30:39.996Z,31.00
2022-09-05T14:37:35.910Z,31.09
2022-09-05T14:37:49.417Z,30.89
2022-09-05T14:40:26.497Z,30.94
2022-09-05T14:43:07.404Z,30.73
2022-09-05T14:46:04.731Z,30.58
2022-09-05T14:48:46.323Z,30.73
2022-09-05T14:51:30.754Z,30.76
2022-09-05T14:54:11.966Z,30.57
2022-09-05T14:58:39.900Z,30.37
2022-09-05T15:02:49.130Z,30.48
2022-09-05T15:03:00.721Z,30.68
2022-09-05T15:05:30.821Z,30.34
2022-09-05T15:08:18.292Z,30.28
2022-09-05T15:12:14.755Z,30.59
2022-09-05T15:14:03.814Z,30.38
2022-09-05T15:16:35.581Z,30.22
2022-09-05T15:19:03.248Z,30.50
2022-09-05T15:21:38.274Z,30.38
2022-09-05T15:24:22.927Z,30.58
2022-09-05T15:27:01.855Z,30.07
2022-09-05T15:29:34.036Z,30.18
2022-09-05T15:32:21.377Z,29.76
2022-09-05T15:34:50.830Z,29.95
2022-09-05T15:37:24.485Z,30.00
2022-09-05T15:40:23.160Z,29.70
2022-09-05T15:43:00.581Z,29.49
2022-09-05T15:45:32.189Z,29.38
2022-09-05T15:48:26.543Z,29.15
2022-09-05T15:51:08.738Z,29.05
2022-09-05T15:53:38.903Z,28.93
2022-09-05T15:56:12.416Z,28.94
2022-09-05T15:58:54.084Z,28.85
2022-09-05T16:01:58.902Z,28.78
2022-09-05T16:07:53.171Z,28.66
2022-09-05T16:10:33.926Z,28.44
2022-09-05T16:10:39.979Z,28.45
2022-09-05T16:13:17.351Z,28.41
2022-09-05T16:20:51.063Z,28.33
2022-09-05T16:23:14.997Z,28.25
2022-09-05T16:23:36.831Z,28.17
2022-09-05T16:24:38.598Z,28.04
2022-09-05T16:27:43.913Z,27.96
2022-09-05T16:30:15.797Z,27.83
2022-09-05T16:32:51.349Z,27.74
2022-09-05T16:35:24.915Z,27.60
2022-09-05T16:38:03.985Z,27.58
2022-09-05T16:40:43.610Z,27.44
2022-09-05T16:43:16.801Z,27.32
2022-09-05T16:46:05.751Z,27.25
2022-09-05T16:49:09.812Z,27.22
2022-09-05T16:51:44.555Z,27.23
2022-09-05T16:54:33.439Z,27.29
2022-09-05T16:57:02.686Z,27.29
2022-09-05T16:59:33.105Z,27.24
2022-09-05T17:02:08.282Z,27.31
2022-09-05T17:05:04.031Z,27.28
2022-09-05T17:07:41.952Z,27.12
2022-09-05T17:10:13.128Z,27.09
2022-09-05T17:12:42.233Z,26.99
2022-09-05T17:15:18.048Z,26.88
2022-09-05T17:18:19.065Z,26.76
2022-09-05T17:20:37.100Z,26.62
2022-09-05T17:29:15.057Z,26.42
2022-09-05T17:29:28.934Z,26.15
2022-09-05T17:30:23.605Z,26.06
2022-09-05T17:32:01.965Z,26.05
2022-09-05T17:34:53.706Z,25.96
2022-09-05T17:37:35.502Z,25.92
2022-09-05T17:40:20.643Z,25.82
2022-09-05T17:42:52.704Z,25.57
2022-09-05T17:45:58.186Z,25.67
2022-09-05T17:48:59.992Z,25.72
2022-09-05T17:51:35.117Z,25.73
2022-09-05T17:54:04.799Z,25.75
2022-09-05T17:56:39.678Z,25.72
2022-09-05T17:59:19.311Z,25.71
2022-09-05T18:02:05.648Z,25.65
2022-09-05T18:05:00.178Z,25.59
2022-09-05T18:07:28.541Z,25.53
2022-09-05T18:10:15.324Z,25.44
2022-09-05T18:15:38.838Z,25.28
2022-09-05T18:21:21.287Z,25.13
2022-09-05T18:23:59.489Z,25.07
2022-09-05T18:26:28.969Z,25.01
2022-09-05T18:29:05.905Z,24.95
2022-09-05T18:31:42.532Z,24.91
2022-09-05T18:34:14.233Z,24.86
2022-09-05T18:36:43.833Z,24.82
2022-09-05T18:39:26.607Z,24.80
2022-09-05T18:42:25.881Z,24.73
2022-09-05T18:45:16.063Z,24.67
2022-09-05T18:47:52.621Z,24.62
2022-09-05T18:50:28.067Z,24.57
2022-09-05T18:53:09.960Z,24.50
2022-09-05T18:56:14.249Z,24.46
2022-09-05T18:59:13.045Z,24.38
2022-09-05T19:02:05.593Z,24.36
2022-09-05T19:04:39.598Z,24.41
2022-09-05T19:07:13.814Z,24.40
2022-09-05T19:10:34.937Z,24.46
2022-09-05T19:13:03.092Z,24.52
2022-09-05T19:15:37.478Z,24.49
2022-09-05T19:18:26.583Z,24.43
2022-09-05T19:21:16.747Z,24.31
2022-09-05T19:23:58.423Z,24.20
2022-09-05T19:26:26.540Z,24.13
2022-09-05T19:36:51.126Z,24.14
2022-09-05T19:36:53.189Z,23.96
2022-09-05T19:37:12.858Z,23.94
2022-09-05T19:37:46.504Z,23.85
2022-09-05T19:47:27.220Z,23.84
2022-09-05T19:47:38.914Z,23.75
2022-09-05T19:47:50.842Z,23.72
2022-09-05T19:49:14.199Z,23.62
2022-09-05T19:51:42.778Z,23.51
2022-09-05T19:54:26.407Z,23.41
2022-09-05T19:57:00.295Z,23.32
2022-09-05T19:59:35.069Z,23.22
2022-09-05T20:02:03.775Z,23.20
2022-09-05T20:04:36.823Z,23.13
2022-09-05T20:07:31.009Z,23.02
2022-09-05T20:10:01.579Z,22.97
2022-09-05T20:12:30.389Z,22.88
2022-09-05T20:15:18.099Z,22.80
2022-09-05T20:17:46.118Z,22.80
2022-09-05T20:20:34.864Z,22.70
2022-09-05T20:23:06.029Z,22.62
2022-09-05T20:25:39.652Z,22.53
2022-09-05T20:28:17.822Z,22.41
2022-09-05T20:30:57.089Z,22.25
2022-09-05T20:33:39.978Z,22.13
2022-09-05T20:43:10.770Z,21.82
2022-09-05T20:43:29.306Z,21.75
2022-09-05T20:43:36.697Z,21.63
2022-09-05T20:45:46.117Z,21.56
2022-09-05T20:54:07.567Z,21.45
2022-09-05T20:54:27.561Z,21.42
2022-09-05T20:54:31.784Z,21.32
2022-09-05T20:56:56.679Z,21.34
2022-09-05T20:59:33.458Z,21.35
2022-09-05T21:02:04.677Z,21.34
2022-09-05T21:04:35.107Z,21.28
2022-09-05T21:07:35.635Z,21.26
2022-09-05T21:10:07.976Z,21.22
2022-09-05T21:12:57.859Z,21.12
2022-09-05T21:15:52.862Z,21.06
2022-09-05T21:18:23.127Z,20.95
2022-09-05T21:21:02.229Z,20.95
2022-09-05T21:23:38.646Z,20.92
2022-09-05T21:26:22.025Z,20.91
2022-09-05T21:29:08.750Z,20.89
2022-09-05T21:31:48.291Z,20.90
2022-09-05T21:34:26.302Z,20.83
2022-09-05T21:37:01.214Z,20.83
2022-09-05T21:39:39.952Z,20.76
2022-09-05T21:42:21.307Z,20.61
2022-09-05T21:47:48.113Z,20.55
2022-09-05T21:47:53.793Z,20.48
2022-09-05T21:50:31.445Z,20.35
2022-09-05T21:53:43.223Z,20.33
2022-09-05T21:59:26.137Z,20.34
2022-09-05T21:59:32.838Z,20.31
2022-09-05T22:01:51.281Z,20.30
2022-09-05T22:04:16.640Z,20.19
2022-09-05T22:06:48.523Z,20.09
2022-09-05T22:09:20.387Z,20.04
2022-09-05T22:11:50.424Z,19.96
2022-09-05T22:14:19.685Z,19.91
2022-09-05T22:16:50.360Z,19.92
2022-09-05T22:19:26.124Z,19.90
2022-09-05T22:22:04.032Z,19.91
2022-09-05T22:24:33.512Z,19.91
2022-09-05T22:27:12.083Z,19.89
2022-09-05T22:29:40.853Z,19.89
2022-09-05T22:32:08.750Z,19.85
2022-09-05T22:34:36.274Z,19.80
2022-09-05T22:37:03.770Z,19.81
2022-09-05T22:39:37.657Z,19.83
2022-09-05T22:42:10.805Z,19.69
2022-09-05T22:44:42.609Z,19.66
2022-09-05T22:47:11.337Z,19.64
2022-09-05T22:49:38.849Z,19.48
2022-09-05T22:52:10.122Z,19.44
2022-09-05T22:54:37.784Z,19.43
2022-09-05T22:57:05.802Z,19.35
2022-09-05T22:59:33.304Z,19.35
2022-09-05T23:02:00.895Z,19.33
2022-09-05T23:04:28.966Z,19.34
2022-09-05T23:06:56.534Z,19.30
2022-09-05T23:09:24.045Z,19.35
2022-09-05T23:11:51.521Z,19.35
2022-09-05T23:14:19.023Z,19.37
2022-09-05T23:16:46.544Z,19.40
2022-09-05T23:19:14.074Z,19.38
2022-09-05T23:21:41.543Z,19.40
2022-09-05T23:24:09.047Z,19.42
2022-09-05T23:26:36.643Z,19.44
2022-09-05T23:29:04.198Z,19.38
2022-09-05T23:31:31.726Z,19.43
2022-09-05T23:33:59.273Z,19.34
2022-09-05T23:36:26.841Z,19.37
2022-09-05T23:38:54.385Z,19.39
2022-09-05T23:41:21.884Z,19.39
2022-09-05T23:43:49.414Z,19.32
2022-09-05T23:46:17.153Z,19.34
2022-09-05T23:48:44.683Z,19.30
2022-09-05T23:51:13.817Z,19.31
2022-09-05T23:53:42.073Z,19.27
2022-09-05T23:56:11.515Z,19.26
2022-09-05T23:58:39.688Z,19.17
